sensor_id;sensor_type;location;lat;lon;timestamp;temperature;humidity
39997;DHT22;25688;52.338;21.072;2022-07-01T00:02:00;18.00;99.90
39997;DHT22;25688;52.338;21.072;2022-07-01T00:04:25;18.00;99.90
39997;DHT22;25688;52.338;21.072;2022-07-01T00:06:53;18.00;99.90
39997;DHT22;25688;52.338;21.072;2022-07-01T00:09:19;18.00;99.90
39997;DHT22;25688;52.338;21.072;2022-07-01T00:11:45;18.10;99.90
39997;DHT22;25688;52.338;21.072;2022-07-01T00:14:10;18.10;99.90
39997;DHT22;25688;52.338;21.072;2022-07-01T00:16:36;18.10;99.90
39997;DHT22;25688;52.338;21.072;2022-07-01T00:19:03;18.10;99.90
39997;DHT22;25688;52.338;21.072;2022-07-01T00:21:29;18.10;99.90
39997;DHT22;25688;52.338;21.072;2022-07-01T00:23:55;18.10;99.90
39997;DHT22;25688;52.338;21.072;2022-07-01T00:26:21;18.00;99.90
39997;DHT22;25688;52.338;21.072;2022-07-01T00:28:47;17.90;99.90
39997;DHT22;25688;52.338;21.072;2022-07-01T00:31:12;17.90;99.90
39997;DHT22;25688;52.338;21.072;2022-07-01T00:33:38;17.80;99.90
39997;DHT22;25688;52.338;21.072;2022-07-01T00:36:03;17.80;99.90
39997;DHT22;25688;52.338;21.072;2022-07-01T00:38:29;17.80;99.90
39997;DHT22;25688;52.338;21.072;2022-07-01T00:40:55;17.80;99.90
39997;DHT22;25688;52.338;21.072;2022-07-01T00:43:21;17.80;99.90
39997;DHT22;25688;52.338;21.072;2022-07-01T00:45:50;17.70;99.90
39997;DHT22;25688;52.338;21.072;2022-07-01T00:48:16;17.80;99.90
39997;DHT22;25688;52.338;21.072;2022-07-01T00:50:44;17.80;99.90
39997;DHT22;25688;52.338;21.072;2022-07-01T00:53:11;17.80;99.90
39997;DHT22;25688;52.338;21.072;2022-07-01T00:55:37;17.90;99.90
39997;DHT22;25688;52.338;21.072;2022-07-01T00:58:03;17.80;99.90
39997;DHT22;25688;52.338;21.072;2022-07-01T01:00:29;17.80;99.90
39997;DHT22;25688;52.338;21.072;2022-07-01T01:02:55;17.70;99.90
39997;DHT22;25688;52.338;21.072;2022-07-01T01:05:21;17.80;99.90
39997;DHT22;25688;52.338;21.072;2022-07-01T01:07:50;17.70;99.90
39997;DHT22;25688;52.338;21.072;2022-07-01T01:10:17;17.70;99.90
39997;DHT22;25688;52.338;21.072;2022-07-01T01:12:43;17.80;99.90
39997;DHT22;25688;52.338;21.072;2022-07-01T01:15:09;18.10;99.90
39997;DHT22;25688;52.338;21.072;2022-07-01T01:17:36;18.00;99.90
39997;DHT22;25688;52.338;21.072;2022-07-01T01:20:03;18.00;99.90
39997;DHT22;25688;52.338;21.072;2022-07-01T01:22:29;18.10;99.90
39997;DHT22;25688;52.338;21.072;2022-07-01T01:24:57;18.00;99.90
39997;DHT22;25688;52.338;21.072;2022-07-01T01:27:23;18.00;99.90
39997;DHT22;25688;52.338;21.072;2022-07-01T01:29:49;18.00;99.90
39997;DHT22;25688;52.338;21.072;2022-07-01T01:32:15;18.10;99.90
39997;DHT22;25688;52.338;21.072;2022-07-01T01:34:40;18.60;99.90
39997;DHT22;25688;52.338;21.072;2022-07-01T01:37:08;19.10;99.90
39997;DHT22;25688;52.338;21.072;2022-07-01T01:39:34;19.20;99.90
39997;DHT22;25688;52.338;21.072;2022-07-01T01:42:06;19.40;99.90
39997;DHT22;25688;52.338;21.072;2022-07-01T01:44:32;19.30;99.90
39997;DHT22;25688;52.338;21.072;2022-07-01T01:46:58;19.30;99.90
39997;DHT22;25688;52.338;21.072;2022-07-01T01:49:23;19.30;99.90
39997;DHT22;25688;52.338;21.072;2022-07-01T01:51:49;19.00;99.90
39997;DHT22;25688;52.338;21.072;2022-07-01T01:54:15;19.20;99.90
39997;DHT22;25688;52.338;21.072;2022-07-01T01:56:41;19.10;99.90
39997;DHT22;25688;52.338;21.072;2022-07-01T01:59:06;19.10;99.90
39997;DHT22;25688;52.338;21.072;2022-07-01T02:01:32;19.10;99.90
39997;DHT22;25688;52.338;21.072;2022-07-01T02:03:58;19.10;99.90
39997;DHT22;25688;52.338;21.072;2022-07-01T02:06:24;19.10;99.90
39997;DHT22;25688;52.338;21.072;2022-07-01T02:08:50;19.10;99.90
39997;DHT22;25688;52.338;21.072;2022-07-01T02:11:16;19.10;99.90
39997;DHT22;25688;52.338;21.072;2022-07-01T02:13:41;19.00;99.90
39997;DHT22;25688;52.338;21.072;2022-07-01T02:16:09;18.90;99.90
39997;DHT22;25688;52.338;21.072;2022-07-01T02:18:35;18.90;99.90
39997;DHT22;25688;52.338;21.072;2022-07-01T02:21:00;19.00;99.90
39997;DHT22;25688;52.338;21.072;2022-07-01T02:23:26;19.00;99.90
39997;DHT22;25688;52.338;21.072;2022-07-01T02:25:52;18.90;99.90
39997;DHT22;25688;52.338;21.072;2022-07-01T02:28:18;18.90;99.90
39997;DHT22;25688;52.338;21.072;2022-07-01T02:30:43;18.90;99.90
39997;DHT22;25688;52.338;21.072;2022-07-01T02:33:09;18.90;99.90
39997;DHT22;25688;52.338;21.072;2022-07-01T02:35:37;18.90;99.90
39997;DHT22;25688;52.338;21.072;2022-07-01T02:38:03;18.80;99.90
39997;DHT22;25688;52.338;21.072;2022-07-01T02:40:30;18.90;99.90
39997;DHT22;25688;52.338;21.072;2022-07-01T02:42:56;18.80;99.90
39997;DHT22;25688;52.338;21.072;2022-07-01T02:45:22;18.80;99.90
39997;DHT22;25688;52.338;21.072;2022-07-01T02:47:50;18.80;99.90
39997;DHT22;25688;52.338;21.072;2022-07-01T02:50:18;18.90;99.90
39997;DHT22;25688;52.338;21.072;2022-07-01T02:52:45;18.90;99.90
39997;DHT22;25688;52.338;21.072;2022-07-01T02:55:12;18.80;99.90
39997;DHT22;25688;52.338;21.072;2022-07-01T02:57:38;18.80;99.90
39997;DHT22;25688;52.338;21.072;2022-07-01T03:00:07;18.80;99.90
39997;DHT22;25688;52.338;21.072;2022-07-01T03:02:33;18.80;99.90
39997;DHT22;25688;52.338;21.072;2022-07-01T03:04:59;18.80;99.90
39997;DHT22;25688;52.338;21.072;2022-07-01T03:07:25;18.90;99.90
39997;DHT22;25688;52.338;21.072;2022-07-01T03:09:51;19.00;99.90
39997;DHT22;25688;52.338;21.072;2022-07-01T03:12:17;19.00;99.90
39997;DHT22;25688;52.338;21.072;2022-07-01T03:15:06;19.00;99.90
39997;DHT22;25688;52.338;21.072;2022-07-01T03:17:34;19.20;99.90
39997;DHT22;25688;52.338;21.072;2022-07-01T03:20:01;19.10;99.90
39997;DHT22;25688;52.338;21.072;2022-07-01T03:22:28;19.10;99.90
39997;DHT22;25688;52.338;21.072;2022-07-01T03:24:55;19.20;99.90
39997;DHT22;25688;52.338;21.072;2022-07-01T03:27:21;19.20;99.90
39997;DHT22;25688;52.338;21.072;2022-07-01T03:29:47;19.30;99.90
39997;DHT22;25688;52.338;21.072;2022-07-01T03:32:13;19.30;99.90
39997;DHT22;25688;52.338;21.072;2022-07-01T03:34:41;19.30;99.90
39997;DHT22;25688;52.338;21.072;2022-07-01T03:37:08;19.40;99.90
39997;DHT22;25688;52.338;21.072;2022-07-01T03:39:35;19.50;99.90
39997;DHT22;25688;52.338;21.072;2022-07-01T03:42:02;19.60;99.90
39997;DHT22;25688;52.338;21.072;2022-07-01T03:44:28;19.80;99.90
39997;DHT22;25688;52.338;21.072;2022-07-01T03:46:54;20.00;99.90
39997;DHT22;25688;52.338;21.072;2022-07-01T03:49:19;20.10;99.90
39997;DHT22;25688;52.338;21.072;2022-07-01T03:51:46;20.20;99.90
39997;DHT22;25688;52.338;21.072;2022-07-01T03:54:11;20.40;99.90
39997;DHT22;25688;52.338;21.072;2022-07-01T03:57:06;20.50;99.90
39997;DHT22;25688;52.338;21.072;2022-07-01T03:59:36;20.70;99.90
39997;DHT22;25688;52.338;21.072;2022-07-01T04:02:03;20.70;99.90
39997;DHT22;25688;52.338;21.072;2022-07-01T04:04:30;20.90;99.90
39997;DHT22;25688;52.338;21.072;2022-07-01T04:06:57;21.10;99.90
39997;DHT22;25688;52.338;21.072;2022-07-01T04:09:24;21.20;99.90
39997;DHT22;25688;52.338;21.072;2022-07-01T04:11:51;21.40;99.90
39997;DHT22;25688;52.338;21.072;2022-07-01T04:14:17;21.50;99.90
39997;DHT22;25688;52.338;21.072;2022-07-01T04:16:46;21.60;99.90
39997;DHT22;25688;52.338;21.072;2022-07-01T04:19:14;21.80;99.90
39997;DHT22;25688;52.338;21.072;2022-07-01T04:21:41;21.90;99.90
39997;DHT22;25688;52.338;21.072;2022-07-01T04:24:25;22.00;99.90
39997;DHT22;25688;52.338;21.072;2022-07-01T04:26:52;22.20;99.90
39997;DHT22;25688;52.338;21.072;2022-07-01T04:29:18;22.30;99.90
39997;DHT22;25688;52.338;21.072;2022-07-01T04:31:44;22.40;99.90
39997;DHT22;25688;52.338;21.072;2022-07-01T04:34:11;22.50;99.90
39997;DHT22;25688;52.338;21.072;2022-07-01T04:36:37;22.60;99.90
39997;DHT22;25688;52.338;21.072;2022-07-01T04:39:04;22.70;99.90
39997;DHT22;25688;52.338;21.072;2022-07-01T04:41:30;22.80;99.90
39997;DHT22;25688;52.338;21.072;2022-07-01T04:44:15;22.90;99.90
39997;DHT22;25688;52.338;21.072;2022-07-01T04:46:40;23.10;99.90
39997;DHT22;25688;52.338;21.072;2022-07-01T04:49:06;23.20;99.90
39997;DHT22;25688;52.338;21.072;2022-07-01T04:51:33;23.30;99.90
39997;DHT22;25688;52.338;21.072;2022-07-01T04:54:01;23.40;99.90
39997;DHT22;25688;52.338;21.072;2022-07-01T04:56:26;23.50;99.90
39997;DHT22;25688;52.338;21.072;2022-07-01T04:58:55;23.70;99.90
39997;DHT22;25688;52.338;21.072;2022-07-01T05:01:20;23.80;99.90
39997;DHT22;25688;52.338;21.072;2022-07-01T05:03:46;24.00;99.90
39997;DHT22;25688;52.338;21.072;2022-07-01T05:06:12;24.10;99.90
39997;DHT22;25688;52.338;21.072;2022-07-01T05:08:38;24.10;99.90
39997;DHT22;25688;52.338;21.072;2022-07-01T05:11:03;24.10;99.90
39997;DHT22;25688;52.338;21.072;2022-07-01T05:13:29;24.20;99.90
39997;DHT22;25688;52.338;21.072;2022-07-01T05:15:55;24.30;99.90
39997;DHT22;25688;52.338;21.072;2022-07-01T05:18:20;24.40;99.90
39997;DHT22;25688;52.338;21.072;2022-07-01T05:21:05;24.50;99.90
39997;DHT22;25688;52.338;21.072;2022-07-01T05:23:49;24.60;99.90
39997;DHT22;25688;52.338;21.072;2022-07-01T05:26:14;24.70;99.90
39997;DHT22;25688;52.338;21.072;2022-07-01T05:28:43;24.70;99.90
39997;DHT22;25688;52.338;21.072;2022-07-01T05:31:10;24.90;99.90
39997;DHT22;25688;52.338;21.072;2022-07-01T05:33:35;24.90;99.90
39997;DHT22;25688;52.338;21.072;2022-07-01T05:36:01;25.00;99.90
39997;DHT22;25688;52.338;21.072;2022-07-01T05:38:27;25.10;99.90
39997;DHT22;25688;52.338;21.072;2022-07-01T05:40:53;25.10;99.90
39997;DHT22;25688;52.338;21.072;2022-07-01T05:43:19;25.20;99.90
39997;DHT22;25688;52.338;21.072;2022-07-01T05:45:45;25.30;99.90
39997;DHT22;25688;52.338;21.072;2022-07-01T05:48:11;25.40;99.90
39997;DHT22;25688;52.338;21.072;2022-07-01T05:50:37;25.50;99.90
39997;DHT22;25688;52.338;21.072;2022-07-01T05:53:04;25.50;99.90
39997;DHT22;25688;52.338;21.072;2022-07-01T05:55:30;25.60;99.90
39997;DHT22;25688;52.338;21.072;2022-07-01T05:57:55;25.70;99.90
39997;DHT22;25688;52.338;21.072;2022-07-01T06:00:21;25.80;99.90
39997;DHT22;25688;52.338;21.072;2022-07-01T06:02:47;25.90;99.90
39997;DHT22;25688;52.338;21.072;2022-07-01T06:05:12;26.00;99.90
39997;DHT22;25688;52.338;21.072;2022-07-01T06:07:39;26.10;99.90
39997;DHT22;25688;52.338;21.072;2022-07-01T06:10:08;26.30;99.90
39997;DHT22;25688;52.338;21.072;2022-07-01T06:12:36;26.40;99.90
39997;DHT22;25688;52.338;21.072;2022-07-01T06:15:02;26.60;99.90
39997;DHT22;25688;52.338;21.072;2022-07-01T06:17:27;26.80;99.90
39997;DHT22;25688;52.338;21.072;2022-07-01T06:19:53;27.10;99.90
39997;DHT22;25688;52.338;21.072;2022-07-01T06:22:19;27.20;99.90
39997;DHT22;25688;52.338;21.072;2022-07-01T06:24:47;27.50;99.90
39997;DHT22;25688;52.338;21.072;2022-07-01T06:27:12;27.70;99.90
39997;DHT22;25688;52.338;21.072;2022-07-01T06:29:38;27.90;99.90
39997;DHT22;25688;52.338;21.072;2022-07-01T06:32:05;28.30;99.90
39997;DHT22;25688;52.338;21.072;2022-07-01T06:34:31;28.30;99.90
39997;DHT22;25688;52.338;21.072;2022-07-01T06:36:57;28.40;99.90
39997;DHT22;25688;52.338;21.072;2022-07-01T06:39:26;28.40;99.90
39997;DHT22;25688;52.338;21.072;2022-07-01T06:41:52;28.50;99.90
39997;DHT22;25688;52.338;21.072;2022-07-01T06:44:18;28.60;99.90
39997;DHT22;25688;52.338;21.072;2022-07-01T06:46:44;28.70;99.90
39997;DHT22;25688;52.338;21.072;2022-07-01T06:49:10;28.80;99.90
39997;DHT22;25688;52.338;21.072;2022-07-01T06:51:36;28.90;99.90
39997;DHT22;25688;52.338;21.072;2022-07-01T06:54:02;29.00;99.90
39997;DHT22;25688;52.338;21.072;2022-07-01T06:56:28;29.00;99.90
39997;DHT22;25688;52.338;21.072;2022-07-01T06:58:55;29.10;99.90
39997;DHT22;25688;52.338;21.072;2022-07-01T07:01:20;29.10;99.90
39997;DHT22;25688;52.338;21.072;2022-07-01T07:03:46;29.20;99.90
39997;DHT22;25688;52.338;21.072;2022-07-01T07:06:12;29.40;99.90
39997;DHT22;25688;52.338;21.072;2022-07-01T07:08:37;29.50;99.90
39997;DHT22;25688;52.338;21.072;2022-07-01T07:11:04;29.50;99.90
39997;DHT22;25688;52.338;21.072;2022-07-01T07:13:30;29.60;99.90
39997;DHT22;25688;52.338;21.072;2022-07-01T07:15:55;29.60;99.90
39997;DHT22;25688;52.338;21.072;2022-07-01T07:18:21;29.70;99.90
39997;DHT22;25688;52.338;21.072;2022-07-01T07:20:47;29.70;99.90
39997;DHT22;25688;52.338;21.072;2022-07-01T07:23:13;29.70;99.90
39997;DHT22;25688;52.338;21.072;2022-07-01T07:25:39;29.80;99.90
39997;DHT22;25688;52.338;21.072;2022-07-01T07:28:04;30.00;99.90
39997;DHT22;25688;52.338;21.072;2022-07-01T07:30:30;30.10;99.90
39997;DHT22;25688;52.338;21.072;2022-07-01T07:32:56;30.10;99.90
39997;DHT22;25688;52.338;21.072;2022-07-01T07:35:22;30.20;99.90
39997;DHT22;25688;52.338;21.072;2022-07-01T07:37:48;30.30;99.90
39997;DHT22;25688;52.338;21.072;2022-07-01T07:40:14;30.40;99.90
39997;DHT22;25688;52.338;21.072;2022-07-01T07:42:47;30.40;99.90
39997;DHT22;25688;52.338;21.072;2022-07-01T07:45:14;30.50;99.90
39997;DHT22;25688;52.338;21.072;2022-07-01T07:47:49;30.50;99.90
39997;DHT22;25688;52.338;21.072;2022-07-01T07:50:15;30.60;99.90
39997;DHT22;25688;52.338;21.072;2022-07-01T07:52:42;30.60;99.90
39997;DHT22;25688;52.338;21.072;2022-07-01T07:55:09;30.70;99.90
39997;DHT22;25688;52.338;21.072;2022-07-01T07:57:39;30.80;99.90
39997;DHT22;25688;52.338;21.072;2022-07-01T08:00:07;30.80;99.90
39997;DHT22;25688;52.338;21.072;2022-07-01T08:02:33;30.90;99.90
39997;DHT22;25688;52.338;21.072;2022-07-01T08:04:59;31.10;99.90
39997;DHT22;25688;52.338;21.072;2022-07-01T08:07:25;31.20;99.90
39997;DHT22;25688;52.338;21.072;2022-07-01T08:09:51;31.20;99.90
39997;DHT22;25688;52.338;21.072;2022-07-01T08:12:17;31.30;99.90
39997;DHT22;25688;52.338;21.072;2022-07-01T08:14:43;31.40;99.90
39997;DHT22;25688;52.338;21.072;2022-07-01T08:17:09;31.50;99.90
39997;DHT22;25688;52.338;21.072;2022-07-01T08:19:35;31.50;99.90
39997;DHT22;25688;52.338;21.072;2022-07-01T08:22:01;31.70;99.90
39997;DHT22;25688;52.338;21.072;2022-07-01T08:24:26;31.80;99.90
39997;DHT22;25688;52.338;21.072;2022-07-01T08:26:52;31.90;99.90
39997;DHT22;25688;52.338;21.072;2022-07-01T08:29:17;32.00;99.90
39997;DHT22;25688;52.338;21.072;2022-07-01T08:31:43;32.00;98.70
39997;DHT22;25688;52.338;21.072;2022-07-01T08:34:09;32.00;97.90
39997;DHT22;25688;52.338;21.072;2022-07-01T08:36:35;32.20;98.50
39997;DHT22;25688;52.338;21.072;2022-07-01T08:39:01;32.20;96.30
39997;DHT22;25688;52.338;21.072;2022-07-01T08:41:27;32.20;94.80
39997;DHT22;25688;52.338;21.072;2022-07-01T08:43:52;32.40;95.30
39997;DHT22;25688;52.338;21.072;2022-07-01T08:46:18;32.40;94.90
39997;DHT22;25688;52.338;21.072;2022-07-01T08:48:44;32.40;94.00
39997;DHT22;25688;52.338;21.072;2022-07-01T08:51:11;32.40;93.10
39997;DHT22;25688;52.338;21.072;2022-07-01T08:53:37;32.40;92.20
39997;DHT22;25688;52.338;21.072;2022-07-01T08:56:03;32.50;92.80
39997;DHT22;25688;52.338;21.072;2022-07-01T08:58:51;32.60;92.10
39997;DHT22;25688;52.338;21.072;2022-07-01T09:01:19;32.70;91.20
39997;DHT22;25688;52.338;21.072;2022-07-01T09:03:47;32.70;90.30
39997;DHT22;25688;52.338;21.072;2022-07-01T09:06:15;32.80;90.00
39997;DHT22;25688;52.338;21.072;2022-07-01T09:08:42;32.90;90.00
39997;DHT22;25688;52.338;21.072;2022-07-01T09:11:19;32.90;87.80
39997;DHT22;25688;52.338;21.072;2022-07-01T09:13:46;33.00;87.70
39997;DHT22;25688;52.338;21.072;2022-07-01T09:16:57;33.10;85.70
39997;DHT22;25688;52.338;21.072;2022-07-01T09:19:24;33.30;86.90
39997;DHT22;25688;52.338;21.072;2022-07-01T09:21:52;33.30;84.10
39997;DHT22;25688;52.338;21.072;2022-07-01T09:26:53;33.30;83.10
39997;DHT22;25688;52.338;21.072;2022-07-01T09:29:19;33.30;82.50
39997;DHT22;25688;52.338;21.072;2022-07-01T09:31:49;33.30;83.20
39997;DHT22;25688;52.338;21.072;2022-07-01T09:34:15;33.20;83.00
39997;DHT22;25688;52.338;21.072;2022-07-01T09:36:41;33.20;81.20
39997;DHT22;25688;52.338;21.072;2022-07-01T09:39:16;33.30;80.90
39997;DHT22;25688;52.338;21.072;2022-07-01T09:41:42;33.40;78.50
39997;DHT22;25688;52.338;21.072;2022-07-01T09:44:09;33.50;78.80
39997;DHT22;25688;52.338;21.072;2022-07-01T09:46:35;33.50;78.40
39997;DHT22;25688;52.338;21.072;2022-07-01T09:49:01;33.50;77.90
39997;DHT22;25688;52.338;21.072;2022-07-01T09:51:27;33.50;78.60
39997;DHT22;25688;52.338;21.072;2022-07-01T09:53:54;33.50;79.50
39997;DHT22;25688;52.338;21.072;2022-07-01T09:56:25;33.40;78.90
39997;DHT22;25688;52.338;21.072;2022-07-01T09:58:50;33.40;79.80
39997;DHT22;25688;52.338;21.072;2022-07-01T10:01:16;33.50;78.00
39997;DHT22;25688;52.338;21.072;2022-07-01T10:03:43;33.50;76.60
39997;DHT22;25688;52.338;21.072;2022-07-01T10:07:28;33.50;76.20
39997;DHT22;25688;52.338;21.072;2022-07-01T10:12:24;33.60;75.50
39997;DHT22;25688;52.338;21.072;2022-07-01T10:14:54;33.60;74.40
39997;DHT22;25688;52.338;21.072;2022-07-01T10:17:31;33.60;75.50
39997;DHT22;25688;52.338;21.072;2022-07-01T10:20:17;33.70;73.90
39997;DHT22;25688;52.338;21.072;2022-07-01T10:22:44;33.80;75.20
39997;DHT22;25688;52.338;21.072;2022-07-01T10:25:46;33.90;74.30
39997;DHT22;25688;52.338;21.072;2022-07-01T10:30:49;34.00;73.80
39997;DHT22;25688;52.338;21.072;2022-07-01T10:33:31;34.00;72.70
39997;DHT22;25688;52.338;21.072;2022-07-01T10:44:18;34.10;70.90
39997;DHT22;25688;52.338;21.072;2022-07-01T10:49:53;34.20;72.30
39997;DHT22;25688;52.338;21.072;2022-07-01T10:52:09;34.30;73.30
39997;DHT22;25688;52.338;21.072;2022-07-01T11:00:24;34.40;71.50
39997;DHT22;25688;52.338;21.072;2022-07-01T11:02:43;34.40;71.10
39997;DHT22;25688;52.338;21.072;2022-07-01T11:05:10;34.40;71.20
39997;DHT22;25688;52.338;21.072;2022-07-01T11:07:39;34.40;70.70
39997;DHT22;25688;52.338;21.072;2022-07-01T11:10:07;34.50;69.60
39997;DHT22;25688;52.338;21.072;2022-07-01T11:12:33;34.50;69.20
39997;DHT22;25688;52.338;21.072;2022-07-01T11:15:00;34.60;70.80
39997;DHT22;25688;52.338;21.072;2022-07-01T11:17:31;34.60;70.00
39997;DHT22;25688;52.338;21.072;2022-07-01T11:19:58;34.60;70.00
39997;DHT22;25688;52.338;21.072;2022-07-01T11:22:29;34.70;69.70
39997;DHT22;25688;52.338;21.072;2022-07-01T11:24:56;34.70;69.70
39997;DHT22;25688;52.338;21.072;2022-07-01T11:27:27;34.70;69.50
39997;DHT22;25688;52.338;21.072;2022-07-01T11:29:54;34.70;69.50
39997;DHT22;25688;52.338;21.072;2022-07-01T11:32:33;34.70;68.40
39997;DHT22;25688;52.338;21.072;2022-07-01T11:34:59;34.60;69.10
39997;DHT22;25688;52.338;21.072;2022-07-01T11:37:30;34.60;69.60
39997;DHT22;25688;52.338;21.072;2022-07-01T11:40:17;34.50;70.10
39997;DHT22;25688;52.338;21.072;2022-07-01T11:42:43;34.60;68.70
39997;DHT22;25688;52.338;21.072;2022-07-01T11:45:22;34.50;69.20
39997;DHT22;25688;52.338;21.072;2022-07-01T11:47:49;34.60;69.60
39997;DHT22;25688;52.338;21.072;2022-07-01T11:50:15;34.60;69.00
39997;DHT22;25688;52.338;21.072;2022-07-01T11:52:41;34.80;70.00
39997;DHT22;25688;52.338;21.072;2022-07-01T11:55:07;34.90;70.00
39997;DHT22;25688;52.338;21.072;2022-07-01T11:57:42;34.90;68.00
39997;DHT22;25688;52.338;21.072;2022-07-01T12:00:10;34.90;68.70
39997;DHT22;25688;52.338;21.072;2022-07-01T12:02:36;34.90;69.20
39997;DHT22;25688;52.338;21.072;2022-07-01T12:05:03;34.80;66.70
39997;DHT22;25688;52.338;21.072;2022-07-01T12:07:29;34.70;68.70
39997;DHT22;25688;52.338;21.072;2022-07-01T12:09:55;34.70;68.30
39997;DHT22;25688;52.338;21.072;2022-07-01T12:12:22;34.80;69.20
39997;DHT22;25688;52.338;21.072;2022-07-01T12:14:58;34.80;69.00
39997;DHT22;25688;52.338;21.072;2022-07-01T12:17:25;34.70;68.20
39997;DHT22;25688;52.338;21.072;2022-07-01T12:19:52;34.70;67.90
39997;DHT22;25688;52.338;21.072;2022-07-01T12:22:26;34.80;67.60
39997;DHT22;25688;52.338;21.072;2022-07-01T12:25:04;34.80;67.90
39997;DHT22;25688;52.338;21.072;2022-07-01T12:27:33;35.00;67.40
39997;DHT22;25688;52.338;21.072;2022-07-01T12:30:00;35.00;67.30
39997;DHT22;25688;52.338;21.072;2022-07-01T12:32:27;35.00;68.60
39997;DHT22;25688;52.338;21.072;2022-07-01T12:35:09;35.10;69.00
39997;DHT22;25688;52.338;21.072;2022-07-01T12:37:55;35.20;68.60
39997;DHT22;25688;52.338;21.072;2022-07-01T12:40:23;35.20;65.80
39997;DHT22;25688;52.338;21.072;2022-07-01T12:42:49;35.00;66.10
39997;DHT22;25688;52.338;21.072;2022-07-01T12:45:17;35.00;67.60
39997;DHT22;25688;52.338;21.072;2022-07-01T12:47:49;35.00;67.30
39997;DHT22;25688;52.338;21.072;2022-07-01T12:53:04;35.00;66.60
39997;DHT22;25688;52.338;21.072;2022-07-01T12:55:37;35.10;67.50
39997;DHT22;25688;52.338;21.072;2022-07-01T12:58:05;35.20;67.20
39997;DHT22;25688;52.338;21.072;2022-07-01T13:00:31;35.30;65.60
39997;DHT22;25688;52.338;21.072;2022-07-01T13:02:59;35.20;64.40
39997;DHT22;25688;52.338;21.072;2022-07-01T13:05:26;35.10;64.70
39997;DHT22;25688;52.338;21.072;2022-07-01T13:07:52;35.00;65.20
39997;DHT22;25688;52.338;21.072;2022-07-01T13:10:18;34.90;65.10
39997;DHT22;25688;52.338;21.072;2022-07-01T13:12:45;35.00;65.80
39997;DHT22;25688;52.338;21.072;2022-07-01T13:15:11;35.10;64.40
39997;DHT22;25688;52.338;21.072;2022-07-01T13:17:37;35.10;65.00
39997;DHT22;25688;52.338;21.072;2022-07-01T13:20:04;35.10;64.80
39997;DHT22;25688;52.338;21.072;2022-07-01T13:22:30;35.10;65.10
39997;DHT22;25688;52.338;21.072;2022-07-01T13:24:55;35.20;66.00
39997;DHT22;25688;52.338;21.072;2022-07-01T13:27:21;35.20;65.90
39997;DHT22;25688;52.338;21.072;2022-07-01T13:29:48;35.20;66.30
39997;DHT22;25688;52.338;21.072;2022-07-01T13:32:14;35.20;66.50
39997;DHT22;25688;52.338;21.072;2022-07-01T13:34:40;35.10;65.10
39997;DHT22;25688;52.338;21.072;2022-07-01T13:37:06;35.10;65.30
39997;DHT22;25688;52.338;21.072;2022-07-01T13:39:31;35.10;66.40
39997;DHT22;25688;52.338;21.072;2022-07-01T13:41:57;35.20;66.30
39997;DHT22;25688;52.338;21.072;2022-07-01T13:44:23;35.20;66.70
39997;DHT22;25688;52.338;21.072;2022-07-01T13:46:56;35.20;65.30
39997;DHT22;25688;52.338;21.072;2022-07-01T13:49:22;35.10;65.60
39997;DHT22;25688;52.338;21.072;2022-07-01T13:51:47;35.10;65.90
39997;DHT22;25688;52.338;21.072;2022-07-01T13:54:13;35.00;66.40
39997;DHT22;25688;52.338;21.072;2022-07-01T13:56:39;35.00;65.10
39997;DHT22;25688;52.338;21.072;2022-07-01T13:59:05;35.10;65.60
39997;DHT22;25688;52.338;21.072;2022-07-01T14:01:31;35.00;65.20
39997;DHT22;25688;52.338;21.072;2022-07-01T14:03:58;35.00;66.00
39997;DHT22;25688;52.338;21.072;2022-07-01T14:06:24;35.10;66.20
39997;DHT22;25688;52.338;21.072;2022-07-01T14:08:50;35.00;64.60
39997;DHT22;25688;52.338;21.072;2022-07-01T14:11:16;34.90;64.80
39997;DHT22;25688;52.338;21.072;2022-07-01T14:13:41;34.80;65.50
39997;DHT22;25688;52.338;21.072;2022-07-01T14:16:08;34.60;65.30
39997;DHT22;25688;52.338;21.072;2022-07-01T14:18:34;34.70;66.50
39997;DHT22;25688;52.338;21.072;2022-07-01T14:21:04;34.70;65.40
39997;DHT22;25688;52.338;21.072;2022-07-01T14:23:31;34.70;65.60
39997;DHT22;25688;52.338;21.072;2022-07-01T14:25:56;34.80;65.90
39997;DHT22;25688;52.338;21.072;2022-07-01T14:28:22;34.90;65.80
39997;DHT22;25688;52.338;21.072;2022-07-01T14:30:47;34.90;65.70
39997;DHT22;25688;52.338;21.072;2022-07-01T14:33:15;34.90;65.90
39997;DHT22;25688;52.338;21.072;2022-07-01T14:35:41;34.90;64.80
39997;DHT22;25688;52.338;21.072;2022-07-01T14:38:07;34.80;65.50
39997;DHT22;25688;52.338;21.072;2022-07-01T14:40:33;34.80;64.50
39997;DHT22;25688;52.338;21.072;2022-07-01T14:43:00;34.70;64.70
39997;DHT22;25688;52.338;21.072;2022-07-01T14:45:26;34.60;64.50
39997;DHT22;25688;52.338;21.072;2022-07-01T14:47:52;34.70;65.30
39997;DHT22;25688;52.338;21.072;2022-07-01T14:50:18;34.70;64.60
39997;DHT22;25688;52.338;21.072;2022-07-01T14:52:44;34.70;64.50
39997;DHT22;25688;52.338;21.072;2022-07-01T14:55:09;34.70;64.10
39997;DHT22;25688;52.338;21.072;2022-07-01T14:57:36;34.60;63.50
39997;DHT22;25688;52.338;21.072;2022-07-01T15:00:03;34.70;63.60
39997;DHT22;25688;52.338;21.072;2022-07-01T15:02:28;34.70;64.20
39997;DHT22;25688;52.338;21.072;2022-07-01T15:04:54;34.70;63.80
39997;DHT22;25688;52.338;21.072;2022-07-01T15:07:20;34.60;64.10
39997;DHT22;25688;52.338;21.072;2022-07-01T15:09:46;34.70;63.80
39997;DHT22;25688;52.338;21.072;2022-07-01T15:12:12;34.70;63.80
39997;DHT22;25688;52.338;21.072;2022-07-01T15:14:37;34.70;64.60
39997;DHT22;25688;52.338;21.072;2022-07-01T15:17:03;34.70;64.20
39997;DHT22;25688;52.338;21.072;2022-07-01T15:19:29;34.70;63.20
39997;DHT22;25688;52.338;21.072;2022-07-01T15:21:56;34.60;63.60
39997;DHT22;25688;52.338;21.072;2022-07-01T15:24:22;34.50;64.00
39997;DHT22;25688;52.338;21.072;2022-07-01T15:26:49;34.40;63.60
39997;DHT22;25688;52.338;21.072;2022-07-01T15:29:14;34.30;63.10
39997;DHT22;25688;52.338;21.072;2022-07-01T15:31:40;34.30;63.40
39997;DHT22;25688;52.338;21.072;2022-07-01T15:34:06;34.20;62.20
39997;DHT22;25688;52.338;21.072;2022-07-01T15:36:32;34.10;63.10
39997;DHT22;25688;52.338;21.072;2022-07-01T15:38:58;34.10;63.70
39997;DHT22;25688;52.338;21.072;2022-07-01T15:41:26;34.10;63.90
39997;DHT22;25688;52.338;21.072;2022-07-01T15:43:53;34.10;64.70
39997;DHT22;25688;52.338;21.072;2022-07-01T15:46:19;34.00;64.80